X  CloseMetar Aviation Weather Data     CYZE Gore Bay Manitoulin

Temperature

0°C Temperature

-8°C Dewpoint

55% Humidity



Wind

21 KM/H

13 MPH

 6 M/S

11 KTS



310°
North West
Current Conditions

Clear Clear
Pressure 1031.82 (hPa) - 30.47 (in)
Visibility 9 (mi) - 14.5 (km)
Airport
Airport-code CYZE

Location Gore Bay Manitoulin 48 (km)

Metar:
CYZE 141900Z AUTO 31011KT 9SM CLR M00/M08 A3047 RMK PRESRR SLP330

Time: 03-14-2020 15:00